SFS weather

Subic Bay International Airport
Olongapo City, Zambales Province, Philippines

Public forecast

Using degrees Celsius for public forecast. Weather courtesy of forecast.io.

METAR (pilot weather report)

Retrieved 2019/05/26 15:00 UTC (20 minutes ago):

RPLB 261500Z 06007KT 9999 FEW018 BKN080 25/24 Q1012 RESHRA RMK A2988

TAF (pilot weather forecast)

Retrieved 2019/05/26 12:00 UTC (3 hours ago):

TAF RPLB 261100Z 2612/2712 04004KT 9999 FEW020 BKN080 TX33/2706Z TN25/2622Z TEMPO 2612/2618 08007KT 6000 TSRA FEW016CB SCT018 OVC070